Time;durP1;ratioP1;P1;durP2;ratioP2;P2;SDS_P1;SDS_P2;PMS_P1;PMS_P2;Temp;Humidity;BMP_temperature;BMP_pressure;BME280_temperature;BME280_humidity;BME280_pressure;Samples;Min_cycle;Max_cycle;Signal;HPM_P1;HPM_P2
2021/08/14 00:02:08;;;;;;;7.03;6.50;;;;;;;;;;5092960;28;20765;-87
2021/08/14 00:04:33;;;;;;;7.00;6.37;;;16.10;98.10;;;;;;5092897;28;20215;-88
2021/08/14 00:06:59;;;;;;;8.60;6.63;;;15.20;98.00;;;;;;5075175;28;20424;-89
2021/08/14 00:09:24;;;;;;;6.70;6.00;;;16.70;99.00;;;;;;5092890;28;20253;-89
2021/08/14 00:11:50;;;;;;;9.63;7.30;;;15.60;98.40;;;;;;5092974;28;20193;-88
2021/08/14 00:14:15;;;;;;;6.10;5.80;;;16.10;98.30;;;;;;5092955;28;20174;-89
2021/08/14 00:16:41;;;;;;;7.43;6.73;;;15.60;97.90;;;;;;5075001;28;20166;-89
2021/08/14 00:19:06;;;;;;;7.47;6.80;;;18.60;99.90;;;;;;5092895;28;20215;-89
2021/08/14 00:21:32;;;;;;;6.47;5.80;;;16.30;98.50;;;;;;5093081;28;20176;-89
2021/08/14 00:23:58;;;;;;;6.60;6.20;;;15.50;98.00;;;;;;5092728;28;20675;-88
2021/08/14 00:26:23;;;;;;;6.00;5.57;;;17.70;99.30;;;;;;5076363;28;20197;-88
2021/08/14 00:28:49;;;;;;;6.77;5.70;;;15.40;97.70;;;;;;5097011;28;20536;-88
2021/08/14 00:31:14;;;;;;;6.87;6.47;;;17.90;99.30;;;;;;5079029;28;20193;-89
2021/08/14 00:33:40;;;;;;;6.80;6.20;;;16.70;98.30;;;;;;5096848;28;20180;-88
2021/08/14 00:36:05;;;;;;;6.90;6.27;;;17.40;99.10;;;;;;5096910;28;20166;-89
2021/08/14 00:38:31;;;;;;;7.63;6.67;;;14.20;97.10;;;;;;5078513;28;20166;-88
2021/08/14 00:40:56;;;;;;;7.47;6.60;;;18.00;99.70;;;;;;5078791;28;20174;-89
2021/08/14 00:43:23;;;;;;;10.27;6.73;;;13.40;96.50;;;;;;5096459;28;20293;-90
2021/08/14 00:45:48;;;;;;;7.23;6.67;;;18.30;99.80;;;;;;5096493;28;20291;-89
2021/08/14 00:48:14;;;;;;;9.00;6.93;;;15.80;97.50;;;;;;5096684;28;20457;-90
2021/08/14 00:50:40;;;;;;;6.30;5.70;;;17.20;98.70;;;;;;5097151;28;20178;-89
2021/08/14 00:53:07;;;;;;;7.27;6.60;;;15.30;98.10;;;;;;5096677;28;20166;-88
2021/08/14 00:55:33;;;;;;;6.70;6.00;;;18.00;99.80;;;;;;5096585;28;20162;-88
2021/08/14 00:57:59;;;;;;;6.03;5.63;;;15.60;97.60;;;;;;5096149;28;20415;-89
2021/08/14 01:00:25;;;;;;;6.60;6.00;;;15.80;97.90;;;;;;5096153;28;20465;-88
2021/08/14 01:02:55;;;;;;;10.57;6.40;;;15.70;97.80;;;;;;5078165;28;20412;-89
2021/08/14 01:05:21;;;;;;;6.70;6.10;;;17.20;98.80;;;;;;5077925;28;20416;-89
2021/08/14 01:07:52;;;;;;;7.90;6.10;;;15.70;97.80;;;;;;5077949;28;20416;-89
2021/08/14 01:10:18;;;;;;;8.43;6.33;;;15.70;97.90;;;;;;5095972;28;20746;-89
2021/08/14 01:12:43;;;;;;;7.67;6.70;;;15.70;97.60;;;;;;5096050;28;20404;-89
2021/08/14 01:15:09;;;;;;;7.67;6.60;;;15.50;99.60;;;;;;5095993;28;20194;-88
2021/08/14 01:17:39;;;;;;;7.10;6.50;;;15.60;98.90;;;;;;5095998;28;20200;-89
2021/08/14 01:20:06;;;;;;;8.20;7.03;;;13.90;99.70;;;;;;5096011;28;20422;-88
2021/08/14 01:22:32;;;;;;;6.63;6.20;;;15.80;99.00;;;;;;5077608;28;20786;-89
2021/08/14 01:24:57;;;;;;;6.40;6.00;;;14.60;97.00;;;;;;5095836;28;20487;-89
2021/08/14 01:27:23;;;;;;;8.73;6.40;;;17.10;99.60;;;;;;5077564;28;20471;-88
2021/08/14 01:29:48;;;;;;;6.13;5.63;;;17.20;99.30;;;;;;5095790;28;20166;-89
2021/08/14 01:32:14;;;;;;;6.83;6.33;;;17.50;99.30;;;;;;5095661;28;20650;-88
2021/08/14 01:34:44;;;;;;;7.07;6.47;;;14.50;97.50;;;;;;5095710;28;20475;-89
2021/08/14 01:37:10;;;;;;;7.00;6.40;;;14.50;97.40;;;;;;5095151;28;20178;-89
2021/08/14 01:39:36;;;;;;;6.17;5.67;;;17.40;99.30;;;;;;5095202;28;20424;-89
2021/08/14 01:42:04;;;;;;;8.57;7.80;;;15.40;98.20;;;;;;5077315;28;20784;-88
2021/08/14 01:44:31;;;;;;;8.13;7.43;;;16.60;98.80;;;;;;5095409;28;20489;-88
2021/08/14 01:46:57;;;;;;;7.63;7.03;;;14.70;97.60;;;;;;5095355;28;20418;-88
2021/08/14 01:49:24;;;;;;;9.00;8.20;;;17.40;99.20;;;;;;5077228;28;20416;-88
2021/08/14 01:51:50;;;;;;;7.63;6.97;;;18.40;99.80;;;;;;5095326;28;20404;-89
2021/08/14 01:54:16;;;;;;;8.10;7.40;;;15.30;98.20;;;;;;5095252;28;20404;-89
2021/08/14 01:56:43;;;;;;;9.27;8.30;;;13.00;96.00;;;;;;5095178;28;20430;-89
2021/08/14 01:59:10;;;;;;;8.87;8.20;;;16.90;98.50;;;;;;5077112;28;20958;-89
2021/08/14 02:01:35;;;;;;;9.37;7.63;;;14.90;97.20;;;;;;5076918;28;20444;-88
2021/08/14 02:04:01;;;;;;;7.67;6.73;;;14.40;96.70;;;;;;5095104;28;20480;-89
2021/08/14 02:06:28;;;;;;;6.60;6.00;;;14.80;96.60;;;;;;5095046;28;20414;-89
2021/08/14 02:08:54;;;;;;;9.90;7.00;;;15.00;96.60;;;;;;5094933;28;20469;-87
2021/08/14 02:11:28;;;;;;;7.77;7.07;;;15.70;96.90;;;;;;5076523;28;20460;-88
2021/08/14 02:13:54;;;;;;;7.97;7.30;;;15.60;96.60;;;;;;5094971;28;20887;-89
2021/08/14 02:16:20;;;;;;;7.57;6.87;;;15.70;96.20;;;;;;5094849;28;20762;-89
2021/08/14 02:18:46;;;;;;;10.50;7.30;;;18.30;97.70;;;;;;5094748;28;20404;-89
2021/08/14 02:21:12;;;;;;;8.83;8.07;;;15.00;96.10;;;;;;5094719;28;20412;-87
2021/08/14 02:23:38;;;;;;;8.10;7.50;;;17.60;98.20;;;;;;5094682;28;20488;-89
2021/08/14 02:26:05;;;;;;;7.47;6.80;;;14.10;95.60;;;;;;5076469;28;20412;-88
2021/08/14 02:28:32;;;;;;;7.70;7.03;;;14.90;96.00;;;;;;5076434;28;20420;-88
2021/08/14 02:30:59;;;;;;;8.00;6.73;;;15.70;96.90;;;;;;5076397;28;20450;-88
2021/08/14 02:33:24;;;;;;;8.17;7.47;;;17.50;98.30;;;;;;5076175;28;20922;-89
2021/08/14 02:35:50;;;;;;;8.47;7.70;;;15.30;97.30;;;;;;5094453;28;20404;-89
2021/08/14 02:38:16;;;;;;;8.47;7.57;;;;;;;;;;5094642;28;20688;-89
2021/08/14 02:40:46;;;;;;;8.87;7.43;;;15.60;97.10;;;;;;5076206;28;20209;-89
2021/08/14 02:43:11;;;;;;;8.73;7.83;;;14.80;97.20;;;;;;5076093;28;20930;-88
2021/08/14 02:45:37;;;;;;;9.70;8.80;;;15.60;98.30;;;;;;5076307;28;20420;-88
2021/08/14 02:48:03;;;;;;;8.23;7.60;;;15.30;98.70;;;;;;5094366;28;20170;-88
2021/08/14 02:50:28;;;;;;;12.53;8.43;;;15.30;98.60;;;;;;5094479;28;20174;-89
2021/08/14 02:52:54;;;;;;;10.13;9.10;;;14.80;98.50;;;;;;5094103;28;20410;-88
2021/08/14 02:55:20;;;;;;;10.10;7.60;;;15.10;98.70;;;;;;5094140;28;20257;-89
2021/08/14 02:57:46;;;;;;;8.53;7.73;;;15.30;98.70;;;;;;5094522;28;20223;-89
2021/08/14 03:00:12;;;;;;;8.67;7.93;;;15.00;98.80;;;;;;5093892;28;20450;-89
2021/08/14 03:02:38;;;;;;;8.70;7.90;;;15.20;98.90;;;;;;5093961;28;20304;-89
2021/08/14 03:05:04;;;;;;;13.20;9.13;;;15.20;98.70;;;;;;5093806;28;20554;-89
2021/08/14 03:07:31;;;;;;;9.17;8.33;;;15.20;98.80;;;;;;5094089;28;20257;-87
2021/08/14 03:09:57;;;;;;;12.07;8.60;;;15.10;99.00;;;;;;5075520;28;20478;-88
2021/08/14 03:12:22;;;;;;;11.50;7.43;;;15.00;99.30;;;;;;5075543;28;20416;-89
2021/08/14 03:14:48;;;;;;;9.10;8.13;;;14.50;99.20;;;;;;5075491;28;20468;-88
2021/08/14 03:17:14;;;;;;;8.23;7.70;;;15.10;99.50;;;;;;5075504;28;20198;-89
2021/08/14 03:19:40;;;;;;;11.83;8.90;;;17.50;99.90;;;;;;5093637;28;20170;-88
2021/08/14 03:22:06;;;;;;;9.80;9.00;;;15.00;99.20;;;;;;5093961;28;20461;-89
2021/08/14 03:24:32;;;;;;;9.47;8.40;;;15.00;99.40;;;;;;5075326;28;20471;-88
2021/08/14 03:26:57;;;;;;;10.23;9.13;;;14.70;99.10;;;;;;5093553;28;20162;-86
2021/08/14 03:29:23;;;;;;;9.43;8.20;;;14.90;99.50;;;;;;5093512;28;20170;-89
2021/08/14 03:31:48;;;;;;;12.93;8.40;;;16.20;99.90;;;;;;5093458;28;20162;-88
2021/08/14 03:34:14;;;;;;;8.70;7.83;;;13.80;99.30;;;;;;5075182;28;20177;-89
2021/08/14 03:36:39;;;;;;;10.43;8.30;;;14.90;99.90;;;;;;5093558;28;20236;-88
2021/08/14 03:39:05;;;;;;;10.87;9.77;;;14.80;99.90;;;;;;5093327;28;20165;-90
2021/08/14 03:41:31;;;;;;;9.47;8.07;;;14.80;99.90;;;;;;5075388;28;20286;-88
2021/08/14 03:43:56;;;;;;;9.53;8.30;;;14.80;99.90;;;;;;5093219;28;20242;-88
2021/08/14 03:46:22;;;;;;;12.53;8.50;;;14.80;99.90;;;;;;5093314;28;20237;-88
2021/08/14 03:48:47;;;;;;;10.27;9.27;;;14.80;99.90;;;;;;5075164;28;20172;-89
2021/08/14 03:51:13;;;;;;;8.97;8.13;;;14.80;99.90;;;;;;5093298;28;20219;-88
2021/08/14 03:53:39;;;;;;;11.30;9.80;;;14.80;99.90;;;;;;5093358;28;20184;-89
2021/08/14 03:56:04;;;;;;;12.53;8.20;;;14.20;99.90;;;;;;5093159;28;20633;-88
2021/08/14 03:58:34;;;;;;;9.70;8.80;;;14.80;99.90;;;;;;5093080;28;20173;-89
2021/08/14 04:01:03;;;;;;;9.83;9.03;;;14.70;99.90;;;;;;5092728;28;20166;-89
2021/08/14 04:03:30;;;;;;;10.20;9.20;;;14.70;99.90;;;;;;5092942;28;20448;-88
2021/08/14 04:05:56;;;;;;;10.40;9.00;;;14.70;99.90;;;;;;5093091;28;20474;-89
2021/08/14 04:08:21;;;;;;;9.83;9.03;;;14.70;99.90;;;;;;5074925;28;20774;-89
2021/08/14 04:10:47;;;;;;;8.33;7.73;;;14.30;99.90;;;;;;5092823;28;20538;-88
2021/08/14 04:13:13;;;;;;;9.50;8.70;;;14.70;99.90;;;;;;5093059;28;20244;-89
2021/08/14 04:15:38;;;;;;;15.13;10.10;;;14.70;99.90;;;;;;5093076;28;20691;-88
2021/08/14 04:18:04;;;;;;;11.83;9.70;;;14.70;99.90;;;;;;5074790;28;20176;-88
2021/08/14 04:20:29;;;;;;;11.77;10.77;;;13.00;99.90;;;;;;5092993;28;20173;-88
2021/08/14 04:22:55;;;;;;;11.20;10.20;;;13.90;99.90;;;;;;5093073;28;20166;-88
2021/08/14 04:25:20;;;;;;;10.10;9.30;;;14.10;99.90;;;;;;5092895;28;20213;-88
2021/08/14 04:27:46;;;;;;;10.03;9.13;;;14.10;99.90;;;;;;5074757;28;20252;-88
2021/08/14 04:30:12;;;;;;;15.00;10.93;;;13.90;99.90;;;;;;5092747;28;20170;-88
2021/08/14 04:32:38;;;;;;;11.33;10.07;;;14.60;99.90;;;;;;5092715;28;20189;-89
2021/08/14 04:35:09;;;;;;;10.63;9.60;;;14.20;99.90;;;;;;5093148;28;20412;-88
2021/08/14 04:37:35;;;;;;;13.43;9.47;;;14.70;99.90;;;;;;5074704;28;20628;-89
2021/08/14 04:40:01;;;;;;;12.57;9.27;;;14.40;99.90;;;;;;5092681;28;20443;-88
2021/08/14 04:42:27;;;;;;;11.17;10.27;;;14.50;99.90;;;;;;5074540;28;20442;-88
2021/08/14 04:44:53;;;;;;;13.93;10.10;;;14.70;99.90;;;;;;5092646;28;21013;-88
2021/08/14 04:47:18;;;;;;;11.17;10.17;;;14.60;99.90;;;;;;5092711;28;20162;-87
2021/08/14 04:49:44;;;;;;;15.50;10.10;;;14.60;99.90;;;;;;5092565;28;20261;-88
2021/08/14 04:52:09;;;;;;;12.10;10.97;;;16.60;99.90;;;;;;5092679;28;20170;-88
2021/08/14 04:54:35;;;;;;;11.73;10.57;;;17.10;99.90;;;;;;5092531;28;20185;-87
2021/08/14 04:57:01;;;;;;;15.57;12.17;;;13.70;99.90;;;;;;5092753;28;20166;-88
2021/08/14 04:59:26;;;;;;;11.37;9.97;;;;;;;;;;5074753;28;20579;-88
2021/08/14 05:01:52;;;;;;;11.20;10.20;;;14.80;99.90;;;;;;4719342;28;10000590;-89
2021/08/14 05:04:18;;;;;;;11.70;10.60;;;14.20;99.90;;;;;;5049551;28;20210;-88
2021/08/14 05:06:43;;;;;;;10.03;9.23;;;13.50;99.90;;;;;;5049736;28;20229;-89
2021/08/14 05:09:09;;;;;;;11.30;10.20;;;14.60;99.90;;;;;;5031668;28;20198;-89
2021/08/14 05:11:34;;;;;;;13.03;10.00;;;14.80;99.90;;;;;;5049867;28;20241;-88
2021/08/14 05:14:00;;;;;;;11.77;9.80;;;14.90;99.90;;;;;;5052145;28;20214;-88
2021/08/14 05:16:25;;;;;;;13.07;10.47;;;16.40;99.90;;;;;;5035420;28;20175;-88
2021/08/14 05:18:54;;;;;;;11.20;10.10;;;14.80;99.90;;;;;;5035373;28;20175;-88
2021/08/14 05:21:20;;;;;;;14.70;11.37;;;14.30;99.90;;;;;;5035348;28;20560;-88
2021/08/14 05:23:45;;;;;;;11.43;9.20;;;15.20;99.90;;;;;;5035181;28;20511;-88
2021/08/14 05:26:11;;;;;;;10.10;9.30;;;15.50;99.90;;;;;;5035217;28;20436;-89
2021/08/14 05:28:37;;;;;;;12.53;9.67;;;15.70;99.90;;;;;;5053074;28;20206;-89
2021/08/14 05:31:02;;;;;;;11.70;9.83;;;16.20;98.50;;;;;;5053024;28;20633;-88
2021/08/14 05:33:28;;;;;;;10.70;9.70;;;14.30;95.40;;;;;;5035462;28;20297;-89
2021/08/14 05:35:53;;;;;;;9.80;9.00;;;17.00;95.20;;;;;;5053348;28;20201;-90
2021/08/14 05:38:19;;;;;;;8.97;8.27;;;17.50;93.10;;;;;;5052714;28;20164;-89
2021/08/14 05:40:45;;;;;;;10.23;9.10;;;18.20;91.50;;;;;;5053074;28;20690;-89
2021/08/14 05:43:10;;;;;;;12.93;9.27;;;19.90;91.00;;;;;;5034986;28;20899;-89
2021/08/14 05:45:36;;;;;;;9.73;8.93;;;19.60;89.50;;;;;;5053671;28;20186;-87
2021/08/14 05:48:03;;;;;;;10.13;9.17;;;20.80;88.00;;;;;;5053454;28;20522;-89
2021/08/14 05:50:29;;;;;;;9.37;8.40;;;19.20;82.20;;;;;;5055233;28;20271;-87
2021/08/14 05:52:54;;;;;;;10.53;9.50;;;21.30;83.20;;;;;;5037662;28;20509;-88
2021/08/14 05:55:20;;;;;;;10.07;9.03;;;19.50;77.80;;;;;;5056351;28;20167;-88
2021/08/14 05:57:46;;;;;;;12.20;10.47;;;20.10;76.00;;;;;;5037494;28;20175;-88
2021/08/14 06:00:12;;;;;;;12.80;9.50;;;19.80;73.20;;;;;;5055305;28;20205;-89
2021/08/14 06:02:37;;;;;;;10.07;9.10;;;20.80;72.10;;;;;;5038010;28;20175;-89
2021/08/14 06:05:03;;;;;;;8.97;8.27;;;21.10;69.80;;;;;;5057718;28;20466;-89
2021/08/14 06:07:29;;;;;;;10.23;9.30;;;21.50;67.40;;;;;;5060038;28;20172;-89
2021/08/14 06:09:54;;;;;;;12.77;8.20;;;21.80;66.10;;;;;;5058472;28;20460;-88
2021/08/14 06:12:20;;;;;;;10.53;8.53;;;23.70;64.30;;;;;;5062689;28;20171;-88
2021/08/14 06:14:46;;;;;;;9.43;8.47;;;23.00;60.00;;;;;;5084297;28;20195;-91
2021/08/14 06:17:14;;;;;;;10.10;9.20;;;24.10;60.60;;;;;;5048542;28;20171;-90
2021/08/14 06:19:39;;;;;;;8.87;8.10;;;21.70;58.20;;;;;;5060160;28;20187;-92
2021/08/14 06:22:05;;;;;;;11.43;7.30;;;23.50;57.70;;;;;;5043613;28;20448;-92
2021/08/14 06:24:33;;;;;;;10.30;7.40;;;24.30;57.50;;;;;;5061157;28;20202;-92
2021/08/14 06:26:58;;;;;;;9.03;8.10;;;24.60;56.30;;;;;;5060441;28;20171;-91
2021/08/14 06:29:24;;;;;;;8.60;7.70;;;26.30;57.40;;;;;;5043351;28;20994;-92
2021/08/14 06:31:49;;;;;;;10.33;8.10;;;25.10;54.60;;;;;;5039926;28;20278;-93
2021/08/14 06:34:15;;;;;;;7.20;6.70;;;27.30;57.00;;;;;;5044194;28;20167;-93
2021/08/14 06:36:41;;;;;;;8.30;7.13;;;26.70;56.30;;;;;;5060064;28;20623;-94
2021/08/14 06:39:06;;;;;;;7.97;7.03;;;26.30;54.80;;;;;;5062567;28;20183;-91
2021/08/14 06:41:32;;;;;;;9.30;7.20;;;28.30;54.80;;;;;;5043806;28;20262;-92
2021/08/14 06:44:00;;;;;;;7.50;7.00;;;25.30;53.20;;;;;;5047456;28;20260;-91
2021/08/14 06:46:26;;;;;;;7.27;6.73;;;25.90;52.50;;;;;;5063111;28;20174;-92
2021/08/14 06:48:51;;;;;;;7.33;6.63;;;27.10;51.50;;;;;;5054569;28;20409;-90
2021/08/14 06:51:17;;;;;;;10.83;6.83;;;25.80;50.70;;;;;;5037529;28;20254;-90
2021/08/14 06:53:43;;;;;;;12.90;6.17;;;25.90;50.90;;;;;;5037309;28;20224;-92
2021/08/14 06:56:09;;;;;;;9.97;6.30;;;26.20;50.10;;;;;;5034030;28;20168;-91
2021/08/14 06:58:34;;;;;;;6.80;6.20;;;27.30;49.90;;;;;;5053251;28;20420;-91
2021/08/14 07:01:00;;;;;;;5.70;5.20;;;27.90;50.90;;;;;;5055897;28;20171;-91
2021/08/14 07:03:25;;;;;;;6.53;6.03;;;28.20;50.10;;;;;;5041873;28;20175;-93
2021/08/14 07:05:58;;;;;;;5.80;5.30;;;27.20;50.20;;;;;;5047841;28;20227;-90
2021/08/14 07:11:12;;;;;;;15.03;6.10;;;27.10;49.20;;;;;;1320844;22;20773;-92
2021/08/14 07:13:39;;;;;;;6.40;5.80;;;26.20;49.30;;;;;;5071792;28;20459;-93
2021/08/14 07:16:05;;;;;;;6.27;5.10;;;27.20;46.10;;;;;;5068686;28;20419;-92
2021/08/14 07:18:31;;;;;;;6.20;5.70;;;27.90;47.20;;;;;;5086470;28;20436;-92
2021/08/14 07:21:00;;;;;;;6.23;5.67;;;28.50;47.60;;;;;;5070730;28;20417;-91
2021/08/14 07:23:27;;;;;;;7.77;5.00;;;29.50;46.40;;;;;;5051658;28;20163;-92
2021/08/14 07:25:52;;;;;;;5.93;5.30;;;29.90;46.10;;;;;;5063219;28;20429;-90
2021/08/14 07:28:22;;;;;;;8.03;4.77;;;30.10;46.40;;;;;;5083445;28;20778;-92
2021/08/14 07:30:49;;;;;;;7.07;4.90;;;28.70;45.10;;;;;;5038829;28;20193;-90
2021/08/14 07:33:15;;;;;;;5.23;4.73;;;28.70;44.40;;;;;;5043825;28;20509;-91
2021/08/14 07:35:42;;;;;;;5.93;5.40;;;29.50;45.00;;;;;;5062771;28;20516;-94
2021/08/14 07:38:14;;;;;;;7.17;5.27;;;30.10;45.20;;;;;;5073979;28;20413;-93
2021/08/14 07:40:40;;;;;;;5.30;4.70;;;29.10;42.60;;;;;;5074345;28;20740;-91
2021/08/14 07:43:08;;;;;;;4.93;4.43;;;29.60;43.20;;;;;;5054293;28;20500;-92
2021/08/14 07:45:45;;;;;;;6.40;5.03;;;29.70;44.60;;;;;;5069646;28;20649;-94
2021/08/14 07:48:11;;;;;;;7.00;4.70;;;31.60;46.00;;;;;;5072337;28;20409;-88
2021/08/14 07:50:37;;;;;;;5.20;4.20;;;30.80;43.70;;;;;;5069762;28;20443;-90
2021/08/14 07:53:07;;;;;;;7.07;5.10;;;29.40;41.80;;;;;;5154547;22;20762;-92
2021/08/14 07:55:38;;;;;;;4.63;4.00;;;29.40;41.70;;;;;;5080464;28;20327;-94
2021/08/14 07:58:12;;;;;;;5.17;4.77;;;29.90;40.90;;;;;;5103125;28;20412;-94
2021/08/14 08:00:38;;;;;;;5.60;4.50;;;29.80;40.50;;;;;;5079856;28;20248;-94
2021/08/14 08:03:03;;;;;;;3.23;3.07;;;30.30;40.80;;;;;;5084796;28;20419;-93
2021/08/14 08:05:29;;;;;;;4.00;3.70;;;31.30;40.70;;;;;;5080438;28;20535;-93
2021/08/14 08:07:55;;;;;;;5.17;4.10;;;31.80;41.10;;;;;;5085296;28;20170;-89
2021/08/14 08:10:21;;;;;;;6.20;4.23;;;30.40;39.90;;;;;;5083269;28;20439;-90
2021/08/14 08:12:48;;;;;;;4.87;3.27;;;29.80;40.10;;;;;;5079723;28;20190;-89
2021/08/14 08:15:14;;;;;;;5.63;3.70;;;30.40;39.90;;;;;;5098229;28;20437;-90
2021/08/14 08:17:42;;;;;;;5.73;3.67;;;30.00;40.10;;;;;;5081367;28;20427;-92
2021/08/14 08:20:11;;;;;;;4.07;3.57;;;31.60;40.20;;;;;;5082301;28;20412;-93
2021/08/14 08:22:40;;;;;;;5.87;4.43;;;29.60;40.50;;;;;;5065004;28;20507;-95
2021/08/14 08:25:07;;;;;;;6.10;3.17;;;30.20;39.50;;;;;;5070518;28;20528;-94
2021/08/14 08:27:35;;;;;;;3.67;3.40;;;30.40;39.20;;;;;;5084122;28;20419;-96
2021/08/14 08:30:01;;;;;;;4.10;3.47;;;31.20;37.90;;;;;;5084778;28;20424;-95
2021/08/14 08:32:33;;;;;;;4.43;3.13;;;30.90;39.30;;;;;;5085120;28;20416;-94
2021/08/14 08:34:58;;;;;;;4.30;3.23;;;31.00;37.70;;;;;;5082550;28;20174;-93
2021/08/14 08:37:24;;;;;;;5.37;3.97;;;31.90;38.20;;;;;;5080210;28;20416;-93
2021/08/14 08:39:50;;;;;;;3.43;3.20;;;31.70;39.30;;;;;;4730559;28;10000275;-92
2021/08/14 08:42:16;;;;;;;3.60;3.40;;;32.90;39.20;;;;;;5082908;28;20166;-89
2021/08/14 08:44:42;;;;;;;3.10;2.90;;;32.00;36.80;;;;;;5098241;28;20521;-94
2021/08/14 08:47:09;;;;;;;3.30;3.10;;;32.20;37.20;;;;;;5099950;28;20182;-94
2021/08/14 08:49:43;;;;;;;3.80;3.10;;;32.40;36.50;;;;;;5101165;28;20483;-88
2021/08/14 08:52:08;;;;;;;3.70;3.40;;;32.10;36.10;;;;;;5083195;28;20420;-92
2021/08/14 08:54:34;;;;;;;3.57;3.40;;;31.90;36.90;;;;;;5082705;28;20472;-92
2021/08/14 08:57:00;;;;;;;3.67;3.37;;;33.20;36.30;;;;;;5083022;28;20189;-90
2021/08/14 08:59:25;;;;;;;3.47;3.13;;;32.00;35.90;;;;;;5099156;28;20196;-91
2021/08/14 09:01:55;;;;;;;4.07;3.77;;;31.80;35.90;;;;;;5103499;28;20165;-91
2021/08/14 09:04:32;;;;;;;5.57;2.67;;;32.80;37.10;;;;;;5078935;28;20216;-95
2021/08/14 09:07:00;;;;;;;4.40;3.57;;;31.70;35.90;;;;;;5079672;28;20447;-92
2021/08/14 09:09:33;;;;;;;3.60;3.30;;;31.70;35.80;;;;;;5083814;28;20454;-89
2021/08/14 09:12:06;;;;;;;4.03;3.30;;;33.40;35.60;;;;;;5090661;28;20417;-90
2021/08/14 09:14:46;;;;;;;3.53;3.23;;;31.70;34.70;;;;;;5091720;28;20445;-90
2021/08/14 09:17:24;;;;;;;4.20;3.50;;;31.60;35.00;;;;;;5067726;28;20430;-91
2021/08/14 09:20:03;;;;;;;3.07;2.90;;;31.50;36.00;;;;;;5084777;28;20430;-93
2021/08/14 09:22:28;;;;;;;4.57;4.00;;;34.40;37.90;;;;;;5102277;28;20408;-92
2021/08/14 09:24:54;;;;;;;3.07;2.97;;;30.50;34.50;;;;;;5069188;28;20501;-92
2021/08/14 09:27:20;;;;;;;7.90;3.40;;;31.10;37.40;;;;;;5084160;28;20201;-90
2021/08/14 09:29:49;;;;;;;3.17;2.97;;;31.80;34.80;;;;;;5103727;28;20173;-90
2021/08/14 09:32:32;;;;;;;3.60;3.30;;;32.20;34.70;;;;;;5084176;28;20435;-94
2021/08/14 09:35:00;;;;;;;4.60;3.00;;;33.60;33.90;;;;;;5099566;28;20395;-92
2021/08/14 09:37:36;;;;;;;6.83;3.00;;;32.60;33.40;;;;;;5064355;28;20416;-92
2021/08/14 09:40:02;;;;;;;2.90;2.73;;;32.40;32.40;;;;;;5078991;28;20479;-91
2021/08/14 09:42:29;;;;;;;2.90;2.80;;;31.80;31.50;;;;;;5077728;28;20511;-92
2021/08/14 09:45:22;;;;;;;3.30;3.10;;;32.90;32.20;;;;;;5088323;28;20455;-89
2021/08/14 09:47:49;;;;;;;2.50;2.40;;;32.80;31.60;;;;;;5080636;28;20462;-90
2021/08/14 09:50:18;;;;;;;4.00;3.00;;;32.80;31.10;;;;;;5102109;28;20412;-88
2021/08/14 09:52:50;;;;;;;4.83;2.90;;;33.80;32.80;;;;;;5100059;28;20439;-90
2021/08/14 09:55:23;;;;;;;2.90;2.63;;;32.30;31.40;;;;;;5100085;28;20425;-89
2021/08/14 09:58:00;;;;;;;2.50;2.40;;;32.10;32.00;;;;;;5099858;28;20404;-89
2021/08/14 10:00:29;;;;;;;3.73;2.47;;;31.90;32.00;;;;;;5080099;28;20450;-87
2021/08/14 10:02:57;;;;;;;3.70;2.87;;;32.40;31.80;;;;;;5100527;28;20411;-87
2021/08/14 10:05:24;;;;;;;3.40;2.83;;;32.60;31.70;;;;;;5068524;28;20482;-88
2021/08/14 10:07:51;;;;;;;2.47;2.40;;;33.80;34.80;;;;;;5081633;28;20439;-87
2021/08/14 10:10:18;;;;;;;2.73;2.53;;;33.20;32.50;;;;;;5094898;28;20491;-92
2021/08/14 10:12:45;;;;;;;2.77;2.57;;;32.50;31.10;;;;;;5086761;28;20536;-88
2021/08/14 10:15:14;;;;;;;2.40;2.40;;;32.70;31.10;;;;;;5080045;28;20432;-91
2021/08/14 10:17:46;;;;;;;7.00;3.07;;;33.50;31.50;;;;;;5100284;28;21029;-89
2021/08/14 10:20:13;;;;;;;4.50;2.47;;;32.60;31.10;;;;;;5081688;28;20432;-91
2021/08/14 10:22:40;;;;;;;4.37;2.73;;;32.50;31.10;;;;;;5094815;28;20481;-92
2021/08/14 10:25:06;;;;;;;2.90;2.70;;;32.80;31.70;;;;;;5081473;28;20468;-93
2021/08/14 10:28:18;;;;;;;2.80;2.70;;;32.60;31.40;;;;;;5072563;28;20417;-90
2021/08/14 10:30:50;;;;;;;3.23;2.97;;;33.40;31.00;;;;;;5078208;28;20416;-91
2021/08/14 10:33:31;;;;;;;2.67;2.47;;;34.90;31.90;;;;;;4730827;28;10000539;-90
2021/08/14 10:36:15;;;;;;;3.07;2.87;;;34.90;32.30;;;;;;5076837;28;20416;-95
2021/08/14 10:38:50;;;;;;;3.23;2.93;;;35.40;29.40;;;;;;5080943;28;20497;-87
2021/08/14 10:41:37;;;;;;;3.57;3.27;;;35.40;29.60;;;;;;5099184;28;20440;-88
2021/08/14 10:44:05;;;;;;;2.70;2.50;;;35.50;29.60;;;;;;5082323;28;20474;-92
2021/08/14 10:46:35;;;;;;;2.30;2.20;;;35.70;29.30;;;;;;5061670;28;20432;-92
2021/08/14 10:49:05;;;;;;;3.00;2.90;;;35.70;30.00;;;;;;5101109;28;20481;-90
2021/08/14 10:51:53;;;;;;;2.50;2.40;;;33.10;28.90;;;;;;5079944;28;21209;-88
2021/08/14 10:54:28;;;;;;;2.73;2.63;;;35.10;29.60;;;;;;5085665;28;20520;-88
2021/08/14 10:57:05;;;;;;;2.53;2.33;;;33.40;29.30;;;;;;5096476;28;21219;-88
2021/08/14 11:02:08;;;;;;;2.90;2.63;;;32.10;28.50;;;;;;5096733;28;20822;-89
2021/08/14 11:04:36;;;;;;;3.73;2.60;;;33.10;29.40;;;;;;5099815;28;20459;-92
2021/08/14 11:07:20;;;;;;;3.07;2.97;;;32.60;28.70;;;;;;5080951;28;20423;-87
2021/08/14 11:09:45;;;;;;;2.17;2.07;;;34.10;29.90;;;;;;5102165;28;20420;-90
2021/08/14 11:12:11;;;;;;;2.60;2.57;;;34.50;29.20;;;;;;5080935;28;20424;-87
2021/08/14 11:14:45;;;;;;;2.77;2.17;;;34.70;28.60;;;;;;5099959;28;20186;-90
2021/08/14 11:17:14;;;;;;;2.47;2.37;;;36.10;29.10;;;;;;5067823;28;20531;-88
2021/08/14 11:19:44;;;;;;;3.23;2.93;;;34.70;29.20;;;;;;5087530;28;20408;-85
2021/08/14 11:22:18;;;;;;;2.70;2.50;;;35.80;29.40;;;;;;5107379;28;20915;-89
2021/08/14 11:24:45;;;;;;;2.70;2.60;;;34.60;28.70;;;;;;5086108;28;20460;-89
2021/08/14 11:27:27;;;;;;;3.13;2.80;;;33.90;29.10;;;;;;5080141;28;20437;-90
2021/08/14 11:29:56;;;;;;;2.57;2.37;;;33.80;29.50;;;;;;5078761;28;20432;-89
2021/08/14 11:32:22;;;;;;;2.40;2.40;;;34.30;28.90;;;;;;5099145;28;20487;-89
2021/08/14 11:34:52;;;;;;;3.60;3.43;;;34.00;29.40;;;;;;5080435;28;20416;-86
2021/08/14 11:37:19;;;;;;;5.27;3.40;;;34.70;30.10;;;;;;5080451;28;20412;-93
2021/08/14 11:39:44;;;;;;;3.30;3.10;;;34.00;28.90;;;;;;5079684;28;20981;-89
2021/08/14 11:42:11;;;;;;;3.07;2.87;;;34.10;29.90;;;;;;5077623;28;20416;-91
2021/08/14 11:44:45;;;;;;;2.97;2.53;;;35.30;30.50;;;;;;5097937;28;20213;-85
2021/08/14 11:47:12;;;;;;;2.70;2.50;;;36.50;29.80;;;;;;5082005;28;20431;-87
2021/08/14 11:49:58;;;;;;;3.00;2.90;;;35.40;29.30;;;;;;5097421;28;20404;-90
2021/08/14 11:52:25;;;;;;;2.53;2.40;;;35.40;28.90;;;;;;5098525;28;20403;-89
2021/08/14 11:55:10;;;;;;;5.80;5.43;;;35.40;29.10;;;;;;5078639;28;20978;-93
2021/08/14 11:57:40;;;;;;;3.97;3.23;;;34.70;29.10;;;;;;5103435;28;20408;-91
2021/08/14 12:00:17;;;;;;;2.97;2.77;;;34.60;29.50;;;;;;5083594;28;20408;-90
2021/08/14 12:02:46;;;;;;;2.87;2.70;;;36.10;30.10;;;;;;5100213;28;20415;-91
2021/08/14 12:05:21;;;;;;;2.97;2.77;;;35.60;29.30;;;;;;5082739;28;20467;-94
2021/08/14 12:07:47;;;;;;;2.53;2.53;;;35.40;30.60;;;;;;5082033;28;20529;-90
2021/08/14 12:10:19;;;;;;;3.50;3.20;;;35.60;30.00;;;;;;5098107;28;20511;-90
2021/08/14 12:12:56;;;;;;;3.87;3.47;;;35.30;29.10;;;;;;5098447;28;20197;-88
2021/08/14 12:15:21;;;;;;;2.50;2.37;;;35.40;29.90;;;;;;5081614;28;20452;-90
2021/08/14 12:17:49;;;;;;;2.70;2.60;;;36.20;31.70;;;;;;5098982;28;20434;-89
2021/08/14 12:20:28;;;;;;;3.00;2.80;;;35.90;30.00;;;;;;5099657;28;20166;-88
2021/08/14 12:22:53;;;;;;;3.23;3.13;;;36.70;29.00;;;;;;5099864;28;20431;-90
2021/08/14 12:25:24;;;;;;;3.27;3.07;;;35.60;29.60;;;;;;5084764;28;20479;-88
2021/08/14 12:27:50;;;;;;;4.73;2.70;;;35.90;28.90;;;;;;5085694;28;20788;-90
2021/08/14 12:30:19;;;;;;;2.60;2.50;;;35.60;29.70;;;;;;5102409;28;20415;-91
2021/08/14 12:32:47;;;;;;;5.53;2.87;;;34.90;29.20;;;;;;5106566;28;20158;-90
2021/08/14 12:35:21;;;;;;;3.03;2.93;;;35.00;29.00;;;;;;4734243;28;10001133;-90
2021/08/14 12:37:50;;;;;;;3.17;2.97;;;34.80;29.10;;;;;;5089252;28;20423;-88
2021/08/14 12:40:18;;;;;;;5.23;2.63;;;34.40;30.70;;;;;;5083963;28;20427;-87
2021/08/14 12:42:45;;;;;;;2.83;2.63;;;34.30;29.30;;;;;;5081486;28;20525;-88
2021/08/14 12:45:11;;;;;;;2.53;2.43;;;34.50;29.80;;;;;;5081641;28;20471;-90
2021/08/14 12:47:36;;;;;;;2.37;2.23;;;35.30;29.80;;;;;;5082310;28;20434;-89
2021/08/14 12:50:16;;;;;;;2.40;2.30;;;35.70;30.30;;;;;;5099474;28;20192;-88
2021/08/14 12:53:04;;;;;;;2.47;2.30;;;35.30;29.30;;;;;;5100198;28;20197;-88
2021/08/14 12:55:39;;;;;;;3.00;2.80;;;34.20;29.40;;;;;;5100469;28;20403;-89